createdAt,value
2022-09-24T00:01:13.938Z,2.97
2022-09-24T00:03:45.758Z,2.80
2022-09-24T00:06:15.035Z,3.40
2022-09-24T00:08:44.105Z,3.42
2022-09-24T00:11:12.625Z,3.33
2022-09-24T00:13:41.258Z,3.00
2022-09-24T00:16:11.196Z,3.15
2022-09-24T00:18:39.172Z,3.58
2022-09-24T00:21:16.064Z,3.28
2022-09-24T00:23:46.147Z,3.97
2022-09-24T00:26:31.534Z,3.97
2022-09-24T00:28:59.945Z,4.40
2022-09-24T00:31:27.970Z,4.25
2022-09-24T00:33:56.025Z,4.75
2022-09-24T00:36:24.147Z,3.08
2022-09-24T00:38:55.516Z,3.28
2022-09-24T00:41:26.551Z,3.67
2022-09-24T00:43:54.773Z,3.28
2022-09-24T00:46:27.486Z,3.65
2022-09-24T00:48:59.138Z,3.20
2022-09-24T00:51:29.605Z,3.88
2022-09-24T00:54:02.926Z,4.28
2022-09-24T00:59:02.444Z,3.65
2022-09-24T01:01:30.822Z,3.72
2022-09-24T01:04:00.446Z,3.83
2022-09-24T01:06:28.526Z,4.25
2022-09-24T01:08:59.758Z,3.25
2022-09-24T01:11:39.026Z,2.67
2022-09-24T01:14:31.366Z,3.88
2022-09-24T01:17:10.095Z,4.28
2022-09-24T01:19:55.912Z,4.20
2022-09-24T01:22:35.374Z,3.97
2022-09-24T01:25:17.671Z,4.38
2022-09-24T01:28:03.199Z,4.05
2022-09-24T01:30:38.149Z,4.38
2022-09-24T01:33:12.614Z,3.45
2022-09-24T01:35:45.282Z,3.45
2022-09-24T01:38:17.878Z,3.72
2022-09-24T01:40:47.777Z,3.53
2022-09-24T01:43:18.930Z,3.42
2022-09-24T01:45:48.782Z,2.92
2022-09-24T01:48:21.096Z,2.60
2022-09-24T01:50:56.222Z,3.65
2022-09-24T01:53:27.898Z,4.45
2022-09-24T01:56:00.545Z,3.88
2022-09-24T01:58:34.081Z,4.50
2022-09-24T02:01:09.085Z,3.75
2022-09-24T02:03:43.548Z,4.05
2022-09-24T02:06:15.902Z,3.35
2022-09-24T02:08:46.998Z,3.13
2022-09-24T02:11:17.608Z,2.70
2022-09-24T02:13:51.413Z,3.08
2022-09-24T02:16:25.847Z,2.70
2022-09-24T02:18:57.986Z,3.20
2022-09-24T02:21:27.191Z,2.60
2022-09-24T02:24:00.979Z,2.75
2022-09-24T02:26:28.772Z,3.13
2022-09-24T02:28:56.561Z,2.53
2022-09-24T02:31:30.921Z,2.58
2022-09-24T02:34:20.028Z,2.30
2022-09-24T02:36:47.829Z,2.22
2022-09-24T02:39:17.384Z,2.05
2022-09-24T02:41:48.137Z,2.83
2022-09-24T02:44:16.497Z,2.70
2022-09-24T02:46:45.640Z,1.42
2022-09-24T02:49:14.144Z,1.52
2022-09-24T02:51:41.990Z,2.30
2022-09-24T02:54:10.446Z,1.83
2022-09-24T02:56:38.762Z,2.28
2022-09-24T02:59:07.649Z,2.35
2022-09-24T03:01:36.016Z,2.35
2022-09-24T03:04:05.510Z,2.60
2022-09-24T03:06:34.063Z,1.95
2022-09-24T03:09:02.234Z,2.00
2022-09-24T03:11:32.957Z,2.17
2022-09-24T03:14:01.318Z,2.20
2022-09-24T03:16:29.115Z,2.38
2022-09-24T03:18:56.897Z,1.83
2022-09-24T03:21:25.933Z,1.52
2022-09-24T03:23:53.652Z,2.85
2022-09-24T03:26:21.435Z,2.17
2022-09-24T03:28:49.115Z,1.88
2022-09-24T03:31:15.994Z,2.10
2022-09-24T03:33:47.085Z,2.25
2022-09-24T03:36:16.746Z,2.13
2022-09-24T03:38:46.725Z,2.55
2022-09-24T03:41:14.561Z,2.25
2022-09-24T03:43:42.547Z,2.25
2022-09-24T03:46:16.085Z,1.77
2022-09-24T03:48:45.238Z,1.88
2022-09-24T03:51:14.792Z,2.45
2022-09-24T03:53:43.090Z,2.28
2022-09-24T03:56:12.791Z,2.35
2022-09-24T03:58:41.921Z,3.08
2022-09-24T04:01:12.899Z,2.60
2022-09-24T04:03:41.141Z,2.55
2022-09-24T04:06:08.978Z,2.25
2022-09-24T04:08:36.697Z,2.03
2022-09-24T04:11:04.433Z,2.65
2022-09-24T04:13:33.552Z,1.85
2022-09-24T04:16:02.936Z,2.15
2022-09-24T04:18:32.140Z,2.20
2022-09-24T04:21:01.731Z,3.22
2022-09-24T04:23:31.386Z,1.80
2022-09-24T04:26:02.066Z,2.08
2022-09-24T04:28:30.954Z,1.63
2022-09-24T04:31:00.282Z,2.30
2022-09-24T04:33:28.221Z,1.75
2022-09-24T04:35:55.962Z,2.10
2022-09-24T04:38:24.081Z,2.72
2022-09-24T04:40:51.916Z,2.55
2022-09-24T04:43:20.044Z,2.30
2022-09-24T04:45:48.122Z,2.80
2022-09-24T04:48:17.242Z,2.35
2022-09-24T04:50:46.515Z,2.00
2022-09-24T04:53:14.833Z,2.85
2022-09-24T04:55:42.678Z,2.42
2022-09-24T04:58:11.159Z,2.83
2022-09-24T05:00:39.494Z,1.65
2022-09-24T05:03:07.289Z,2.13
2022-09-24T05:05:36.838Z,2.15
2022-09-24T05:08:04.914Z,2.80
2022-09-24T05:10:33.579Z,2.03
2022-09-24T05:13:02.092Z,2.47
2022-09-24T05:15:29.994Z,1.80
2022-09-24T05:17:57.764Z,2.47
2022-09-24T05:20:25.659Z,2.17
2022-09-24T05:22:55.122Z,1.98
2022-09-24T05:25:23.643Z,2.53
2022-09-24T05:27:52.470Z,2.15
2022-09-24T05:30:21.813Z,2.72
2022-09-24T05:32:52.310Z,2.53
2022-09-24T05:35:20.562Z,2.00
2022-09-24T05:37:49.573Z,1.95
2022-09-24T05:40:36.381Z,2.00
2022-09-24T05:43:05.289Z,2.30
2022-09-24T05:45:33.609Z,2.17
2022-09-24T05:48:01.512Z,2.75
2022-09-24T05:50:29.357Z,2.33
2022-09-24T05:52:57.134Z,2.75
2022-09-24T05:55:31.416Z,2.60
2022-09-24T05:58:04.039Z,2.15
2022-09-24T06:00:31.842Z,2.42
2022-09-24T06:03:04.678Z,2.47
2022-09-24T06:05:32.939Z,2.50
2022-09-24T06:08:00.602Z,2.75
2022-09-24T06:10:29.729Z,3.50
2022-09-24T06:12:57.726Z,4.13
2022-09-24T06:15:27.160Z,4.00
2022-09-24T06:17:55.609Z,3.75
2022-09-24T06:20:23.913Z,4.03
2022-09-24T06:22:51.582Z,2.85
2022-09-24T06:25:19.253Z,2.58
2022-09-24T06:27:58.226Z,2.53
2022-09-24T06:30:25.878Z,2.00
2022-09-24T06:32:53.794Z,1.98
2022-09-24T06:35:21.633Z,2.17
2022-09-24T06:37:50.109Z,1.90
2022-09-24T06:40:17.954Z,2.28
2022-09-24T06:42:45.735Z,1.92
2022-09-24T06:45:15.156Z,1.52
2022-09-24T06:47:42.894Z,1.85
2022-09-24T06:50:10.986Z,1.52
2022-09-24T06:52:38.679Z,1.77
2022-09-24T06:55:07.278Z,1.60
2022-09-24T06:57:34.943Z,2.35
2022-09-24T07:00:02.998Z,1.85
2022-09-24T07:02:32.136Z,1.95
2022-09-24T07:04:59.882Z,1.60
2022-09-24T07:07:30.500Z,2.25
2022-09-24T07:09:58.450Z,1.85
2022-09-24T07:12:26.177Z,1.80
2022-09-24T07:14:53.896Z,1.83
2022-09-24T07:17:21.665Z,1.50
2022-09-24T07:19:50.825Z,1.48
2022-09-24T07:22:18.913Z,1.98
2022-09-24T07:24:47.142Z,1.50
2022-09-24T07:27:15.348Z,1.60
2022-09-24T07:29:43.459Z,1.80
2022-09-24T07:32:11.136Z,1.90
2022-09-24T07:34:38.850Z,1.48
2022-09-24T07:37:07.885Z,1.20
2022-09-24T07:39:35.802Z,1.70
2022-09-24T07:42:03.644Z,2.10
2022-09-24T07:44:31.571Z,1.95
2022-09-24T07:46:59.344Z,3.05
2022-09-24T07:49:28.981Z,1.88
2022-09-24T07:51:56.808Z,1.98
2022-09-24T07:54:26.277Z,1.75
2022-09-24T07:56:54.299Z,2.00
2022-09-24T07:59:22.037Z,0.93
2022-09-24T08:01:49.749Z,1.50
2022-09-24T08:04:18.196Z,2.10
2022-09-24T08:06:47.721Z,1.88
2022-09-24T08:09:16.730Z,1.77
2022-09-24T08:11:45.959Z,2.67
2022-09-24T08:14:13.674Z,1.58
2022-09-24T08:16:41.393Z,1.20
2022-09-24T08:19:13.983Z,1.88
2022-09-24T08:21:41.734Z,1.73
2022-09-24T08:24:09.492Z,1.77
2022-09-24T08:26:37.256Z,1.70
2022-09-24T08:29:06.293Z,2.30
2022-09-24T08:31:35.137Z,2.15
2022-09-24T08:34:02.894Z,1.50
2022-09-24T08:36:30.595Z,1.40
2022-09-24T08:38:59.049Z,1.55
2022-09-24T08:41:46.986Z,1.65
2022-09-24T08:44:41.638Z,1.85
2022-09-24T08:47:24.333Z,2.35
2022-09-24T08:49:59.343Z,2.08
2022-09-24T08:52:37.197Z,1.38
2022-09-24T08:55:09.877Z,1.98
2022-09-24T08:57:43.602Z,1.30
2022-09-24T09:00:16.778Z,2.25
2022-09-24T09:02:55.652Z,1.65
2022-09-24T09:05:32.606Z,1.33
2022-09-24T09:08:05.333Z,1.67
2022-09-24T09:10:43.363Z,1.40
2022-09-24T09:13:16.487Z,1.45
2022-09-24T09:15:51.116Z,2.35
2022-09-24T09:18:24.555Z,1.15
2022-09-24T09:23:21.878Z,1.13
2022-09-24T09:25:53.639Z,1.45
2022-09-24T09:28:21.910Z,1.30
2022-09-24T09:31:06.993Z,1.45
2022-09-24T09:33:59.690Z,1.00
2022-09-24T09:36:41.107Z,1.23
2022-09-24T09:39:23.545Z,0.80
2022-09-24T09:41:56.800Z,1.13
2022-09-24T09:47:06.077Z,1.25
2022-09-24T09:49:38.833Z,1.58
2022-09-24T09:52:15.850Z,1.17
2022-09-24T09:54:44.205Z,1.02
2022-09-24T09:57:17.039Z,1.40
2022-09-24T09:59:48.255Z,1.05
2022-09-24T10:02:25.347Z,1.10
2022-09-24T10:04:56.086Z,0.98
2022-09-24T10:07:24.061Z,1.15
2022-09-24T10:10:02.242Z,1.38
2022-09-24T10:12:30.421Z,1.17
2022-09-24T10:15:00.397Z,1.27
2022-09-24T10:17:34.843Z,1.15
2022-09-24T10:20:08.533Z,1.40
2022-09-24T10:22:37.007Z,1.05
2022-09-24T10:25:05.686Z,0.77
2022-09-24T10:27:37.142Z,0.80
2022-09-24T10:30:32.610Z,1.70
2022-09-24T10:33:03.766Z,0.93
2022-09-24T10:35:35.546Z,1.00
2022-09-24T10:38:05.957Z,1.10
2022-09-24T10:40:41.189Z,1.42
2022-09-24T10:43:16.717Z,0.82
2022-09-24T10:46:09.824Z,1.17
2022-09-24T10:48:45.442Z,1.00
2022-09-24T10:51:29.008Z,0.65
2022-09-24T10:54:08.442Z,0.65
2022-09-24T10:56:45.247Z,0.80
2022-09-24T10:59:28.952Z,1.17
2022-09-24T11:02:10.493Z,0.95
2022-09-24T11:04:51.287Z,0.88
2022-09-24T11:07:52.575Z,1.00
2022-09-24T11:10:31.458Z,0.93
2022-09-24T11:13:09.149Z,0.68
2022-09-24T11:15:58.759Z,0.60
2022-09-24T11:18:45.886Z,0.65
2022-09-24T11:21:31.043Z,0.80
2022-09-24T11:24:18.259Z,1.00
2022-09-24T11:26:57.542Z,0.75
2022-09-24T11:29:41.730Z,1.02
2022-09-24T11:32:17.882Z,2.30
2022-09-24T11:35:04.458Z,0.82
2022-09-24T11:37:51.061Z,1.30
2022-09-24T11:40:43.639Z,0.82
2022-09-24T11:43:32.797Z,0.63
2022-09-24T11:46:14.733Z,0.40
2022-09-24T11:48:56.586Z,0.50
2022-09-24T11:51:36.461Z,0.57
2022-09-24T11:54:13.844Z,0.82
2022-09-24T11:56:46.197Z,0.60
2022-09-24T11:59:22.213Z,1.10
2022-09-24T12:01:55.126Z,0.50
2022-09-24T12:04:28.861Z,0.68
2022-09-24T12:07:03.971Z,0.43
2022-09-24T12:09:38.487Z,0.47
2022-09-24T12:12:12.750Z,0.43
2022-09-24T12:14:49.069Z,0.80
2022-09-24T12:17:22.287Z,0.80
2022-09-24T12:22:21.586Z,1.45
2022-09-24T12:24:53.822Z,0.45
2022-09-24T12:27:26.878Z,0.73
2022-09-24T12:30:20.040Z,0.80
2022-09-24T12:32:57.014Z,0.60
2022-09-24T12:35:38.451Z,0.63
2022-09-24T12:38:09.768Z,0.50
2022-09-24T12:41:11.671Z,0.60
2022-09-24T12:43:45.223Z,0.32
2022-09-24T12:46:20.244Z,0.22
2022-09-24T12:48:49.655Z,0.50
2022-09-24T12:51:22.198Z,0.80
2022-09-24T12:54:01.378Z,0.32
2022-09-24T12:56:31.700Z,0.68
2022-09-24T12:58:59.771Z,0.38
2022-09-24T13:01:29.995Z,0.57
2022-09-24T13:04:07.797Z,0.93
2022-09-24T13:06:37.656Z,0.60
2022-09-24T13:09:27.199Z,0.50
2022-09-24T13:12:19.370Z,0.90
2022-09-24T13:14:51.561Z,0.88
2022-09-24T13:17:19.622Z,0.50
2022-09-24T13:19:48.876Z,0.85
2022-09-24T13:22:23.764Z,0.70
2022-09-24T13:24:53.583Z,0.60
2022-09-24T13:27:25.726Z,0.98
2022-09-24T13:30:07.948Z,0.53
2022-09-24T13:32:43.206Z,0.60
2022-09-24T13:35:21.117Z,0.60
2022-09-24T13:37:53.271Z,0.57
2022-09-24T13:40:25.882Z,0.82
2022-09-24T13:43:01.352Z,0.80
2022-09-24T13:45:29.709Z,0.80
2022-09-24T13:47:59.983Z,0.80
2022-09-24T13:50:32.564Z,0.50
2022-09-24T13:53:04.074Z,0.75
2022-09-24T13:55:34.702Z,0.40
2022-09-24T13:58:03.993Z,0.70
2022-09-24T14:00:33.043Z,0.50
2022-09-24T14:03:03.638Z,0.35
2022-09-24T14:05:35.850Z,0.55
2022-09-24T14:08:06.980Z,0.55
2022-09-24T14:10:35.983Z,0.43
2022-09-24T14:13:17.489Z,0.70
2022-09-24T14:15:56.270Z,0.60
2022-09-24T14:18:25.689Z,0.55
2022-09-24T14:20:58.368Z,0.50
2022-09-24T14:23:31.383Z,0.60
2022-09-24T14:26:00.582Z,0.68
2022-09-24T14:28:32.811Z,0.57
2022-09-24T14:31:02.115Z,0.53
2022-09-24T14:33:33.109Z,0.52
2022-09-24T14:36:03.358Z,0.40
2022-09-24T14:38:35.234Z,1.55
2022-09-24T14:41:06.854Z,0.90
2022-09-24T14:43:44.491Z,0.70
2022-09-24T14:46:18.482Z,0.93
2022-09-24T14:48:46.455Z,0.90
2022-09-24T14:51:26.643Z,0.70
2022-09-24T14:54:02.074Z,0.50
2022-09-24T14:56:32.003Z,1.00
2022-09-24T14:59:01.982Z,0.38
2022-09-24T15:01:32.975Z,1.15
2022-09-24T15:04:04.079Z,0.57
2022-09-24T15:06:33.498Z,0.90
2022-09-24T15:09:03.930Z,0.60
2022-09-24T15:11:34.185Z,0.93
2022-09-24T15:14:15.852Z,0.68
2022-09-24T15:16:44.547Z,0.47
2022-09-24T15:19:20.456Z,0.40
2022-09-24T15:21:49.590Z,0.77
2022-09-24T15:24:17.640Z,0.52
2022-09-24T15:26:47.787Z,0.68
2022-09-24T15:29:24.187Z,0.75
2022-09-24T15:31:52.196Z,0.60
2022-09-24T15:34:20.613Z,0.77
2022-09-24T15:36:48.893Z,1.20
2022-09-24T15:39:18.870Z,0.70
2022-09-24T15:41:46.619Z,0.80
2022-09-24T15:44:21.755Z,0.80
2022-09-24T15:46:52.015Z,0.85
2022-09-24T15:49:21.972Z,0.65
2022-09-24T15:51:51.310Z,0.52
2022-09-24T15:54:19.093Z,0.80
2022-09-24T15:56:52.019Z,0.90
2022-09-24T15:59:20.761Z,1.08
2022-09-24T16:01:52.171Z,0.63
2022-09-24T16:04:20.186Z,0.98
2022-09-24T16:06:47.971Z,1.13
2022-09-24T16:09:15.827Z,1.33
2022-09-24T16:11:43.667Z,0.57
2022-09-24T16:14:11.369Z,0.93
2022-09-24T16:16:39.509Z,0.63
2022-09-24T16:19:09.211Z,0.57
2022-09-24T16:21:37.370Z,0.77
2022-09-24T16:24:05.370Z,0.90
2022-09-24T16:26:34.381Z,1.80
2022-09-24T16:29:03.455Z,0.90
2022-09-24T16:31:31.351Z,0.88
2022-09-24T16:33:59.109Z,0.75
2022-09-24T16:36:28.182Z,1.20
2022-09-24T16:38:55.859Z,0.98
2022-09-24T16:41:23.559Z,0.88
2022-09-24T16:43:56.234Z,0.90
2022-09-24T16:46:24.535Z,0.93
2022-09-24T16:48:52.273Z,0.55
2022-09-24T16:51:20.591Z,0.95
2022-09-24T16:53:51.288Z,1.10
2022-09-24T16:56:19.097Z,0.73
2022-09-24T16:58:47.688Z,0.57
2022-09-24T17:01:17.626Z,0.70
2022-09-24T17:03:46.574Z,0.45
2022-09-24T17:06:19.318Z,0.50
2022-09-24T17:09:04.862Z,0.30
2022-09-24T17:11:34.274Z,0.70
2022-09-24T17:14:02.479Z,0.80
2022-09-24T17:16:30.809Z,0.95
2022-09-24T17:18:58.563Z,0.43
2022-09-24T17:21:26.266Z,0.50
2022-09-24T17:23:54.093Z,0.70
2022-09-24T17:26:23.408Z,0.45
2022-09-24T17:28:54.926Z,0.52
2022-09-24T17:31:24.456Z,0.50
2022-09-24T17:33:57.100Z,0.65
2022-09-24T17:36:26.210Z,0.60
2022-09-24T17:38:55.190Z,0.70
2022-09-24T17:41:23.542Z,0.88
2022-09-24T17:43:52.922Z,0.85
2022-09-24T17:46:23.057Z,0.63
2022-09-24T17:48:53.046Z,0.82
2022-09-24T17:51:23.067Z,0.52
2022-09-24T17:53:53.066Z,0.75
2022-09-24T17:56:22.440Z,0.50
2022-09-24T17:58:50.339Z,0.65
2022-09-24T18:01:24.362Z,0.60
2022-09-24T18:03:54.415Z,0.70
2022-09-24T18:06:25.568Z,1.33
2022-09-24T18:08:55.110Z,0.95
2022-09-24T18:11:24.671Z,0.55
2022-09-24T18:13:54.518Z,0.65
2022-09-24T18:16:25.366Z,0.75
2022-09-24T18:18:53.261Z,1.40
2022-09-24T18:21:22.921Z,0.82
2022-09-24T18:23:54.219Z,0.95
2022-09-24T18:26:24.260Z,0.57
2022-09-24T18:28:54.198Z,0.98
2022-09-24T18:31:25.082Z,0.65
2022-09-24T18:33:54.022Z,0.70
2022-09-24T18:36:23.838Z,0.40
2022-09-24T18:38:51.566Z,0.50
2022-09-24T18:41:22.670Z,1.00
2022-09-24T18:43:51.071Z,0.40
2022-09-24T18:46:20.963Z,0.50
2022-09-24T18:48:53.443Z,0.60
2022-09-24T18:51:23.938Z,0.67
2022-09-24T18:53:53.702Z,0.60
2022-09-24T18:56:21.989Z,0.70
2022-09-24T18:58:49.737Z,0.40
2022-09-24T19:01:17.540Z,0.77
2022-09-24T19:03:45.399Z,0.90
2022-09-24T19:06:14.425Z,0.73
2022-09-24T19:08:42.265Z,0.90
2022-09-24T19:11:13.772Z,0.82
2022-09-24T19:13:43.345Z,0.50
2022-09-24T19:16:13.298Z,0.90
2022-09-24T19:18:42.273Z,0.40
2022-09-24T19:21:14.171Z,0.47
2022-09-24T19:23:45.814Z,1.00
2022-09-24T19:26:15.212Z,0.88
2022-09-24T19:28:44.111Z,0.55
2022-09-24T19:31:16.539Z,0.90
2022-09-24T19:33:45.108Z,0.95
2022-09-24T19:36:13.141Z,0.80
2022-09-24T19:38:41.986Z,0.90
2022-09-24T19:41:15.141Z,0.40
2022-09-24T19:43:44.053Z,0.40
2022-09-24T19:46:14.525Z,0.65
2022-09-24T19:48:44.389Z,1.00
2022-09-24T19:51:14.366Z,0.85
2022-09-24T19:53:42.506Z,0.80
2022-09-24T19:56:13.210Z,1.15
2022-09-24T19:58:41.217Z,1.40
2022-09-24T20:01:14.829Z,1.25
2022-09-24T20:03:44.762Z,1.02
2022-09-24T20:06:14.521Z,0.73
2022-09-24T20:08:42.905Z,0.70
2022-09-24T20:11:14.950Z,1.15
2022-09-24T20:13:46.603Z,1.25
2022-09-24T20:16:15.517Z,0.70
2022-09-24T20:18:43.437Z,0.50
2022-09-24T20:21:12.709Z,0.80
2022-09-24T20:23:40.494Z,1.30
2022-09-24T20:26:26.167Z,0.85
2022-09-24T20:28:55.298Z,0.80
2022-09-24T20:31:23.090Z,0.85
2022-09-24T20:33:51.266Z,0.75
2022-09-24T20:36:23.898Z,0.75
2022-09-24T20:41:21.848Z,1.08
2022-09-24T20:43:50.060Z,0.82
2022-09-24T20:46:21.855Z,0.60
2022-09-24T20:48:49.939Z,0.75
2022-09-24T20:51:19.902Z,0.82
2022-09-24T20:53:49.025Z,0.95
2022-09-24T20:56:17.518Z,0.85
2022-09-24T20:58:46.923Z,1.13
2022-09-24T21:01:14.726Z,0.90
2022-09-24T21:03:45.625Z,0.70
2022-09-24T21:06:15.280Z,0.60
2022-09-24T21:08:44.562Z,0.98
2022-09-24T21:11:13.886Z,0.77
2022-09-24T21:13:44.643Z,0.40
2022-09-24T21:16:13.539Z,0.63
2022-09-24T21:18:44.336Z,0.50
2022-09-24T21:21:15.377Z,1.25
2022-09-24T21:23:43.804Z,0.55
2022-09-24T21:26:13.751Z,0.77
2022-09-24T21:28:42.457Z,0.85
2022-09-24T21:31:10.769Z,0.68
2022-09-24T21:33:38.530Z,0.75
2022-09-24T21:36:08.938Z,0.40
2022-09-24T21:38:37.123Z,0.73
2022-09-24T21:41:08.234Z,0.70
2022-09-24T21:43:36.362Z,0.63
2022-09-24T21:46:06.556Z,0.65
2022-09-24T21:48:35.210Z,0.32
2022-09-24T21:51:04.401Z,0.55
2022-09-24T21:53:34.017Z,0.47
2022-09-24T21:56:02.229Z,0.40
2022-09-24T21:58:30.721Z,0.95
2022-09-24T22:01:03.231Z,0.70
2022-09-24T22:03:32.674Z,0.85
2022-09-24T22:06:03.593Z,0.47
2022-09-24T22:08:32.004Z,0.60
2022-09-24T22:11:05.943Z,0.50
2022-09-24T22:13:34.665Z,1.02
2022-09-24T22:16:02.773Z,0.95
2022-09-24T22:18:31.221Z,0.82
2022-09-24T22:20:59.091Z,0.50
2022-09-24T22:23:26.846Z,0.88
2022-09-24T22:25:56.225Z,0.88
2022-09-24T22:28:26.660Z,0.75
2022-09-24T22:30:56.212Z,0.75
2022-09-24T22:33:42.215Z,1.02
2022-09-24T22:36:10.322Z,0.52
2022-09-24T22:38:38.006Z,1.40
2022-09-24T22:41:08.100Z,0.90
2022-09-24T22:43:37.595Z,0.80
2022-09-24T22:46:07.294Z,1.20
2022-09-24T22:48:35.545Z,1.10
2022-09-24T22:51:04.798Z,1.13
2022-09-24T22:53:34.707Z,0.80
2022-09-24T22:56:07.991Z,1.10
2022-09-24T22:58:38.060Z,0.90
2022-09-24T23:01:10.437Z,0.68
2022-09-24T23:03:39.377Z,0.63
2022-09-24T23:06:08.710Z,0.73
2022-09-24T23:08:37.658Z,0.80
2022-09-24T23:11:07.899Z,1.13
2022-09-24T23:13:38.010Z,1.05
2022-09-24T23:16:11.697Z,1.15
2022-09-24T23:18:40.149Z,1.10
2022-09-24T23:21:09.478Z,1.65
2022-09-24T23:23:37.374Z,1.17
2022-09-24T23:26:07.106Z,1.08
2022-09-24T23:28:35.603Z,0.80
2022-09-24T23:31:05.370Z,0.70
2022-09-24T23:33:34.306Z,1.20
2022-09-24T23:36:02.961Z,1.05
2022-09-24T23:38:31.337Z,1.15
2022-09-24T23:41:00.674Z,0.70
2022-09-24T23:43:29.101Z,0.95
2022-09-24T23:45:57.939Z,0.85
2022-09-24T23:48:27.114Z,0.70
2022-09-24T23:50:55.487Z,0.70
2022-09-24T23:53:23.234Z,1.00
2022-09-24T23:55:51.835Z,1.00
2022-09-24T23:58:21.419Z,0.80
